createdAt,value
2018-07-05T00:00:34.811Z,5.40
2018-07-05T00:03:15.909Z,5.70
2018-07-05T00:05:56.310Z,5.37
2018-07-05T00:08:37.435Z,5.47
2018-07-05T00:11:17.620Z,5.27
2018-07-05T00:13:57.582Z,5.20
2018-07-05T00:16:38.204Z,5.43
2018-07-05T00:19:19.523Z,6.00
2018-07-05T00:22:01.351Z,5.53
2018-07-05T00:24:41.369Z,4.90
2018-07-05T00:27:21.628Z,5.70
2018-07-05T00:30:01.361Z,5.40
2018-07-05T00:32:41.416Z,5.23
2018-07-05T00:35:22.318Z,5.40
2018-07-05T00:38:08.503Z,6.00
2018-07-05T00:40:51.054Z,5.87
2018-07-05T00:43:31.074Z,5.73
2018-07-05T00:46:10.708Z,5.47
2018-07-05T00:48:52.906Z,5.70
2018-07-05T00:51:35.028Z,6.43
2018-07-05T00:54:16.146Z,6.57
2018-07-05T00:56:58.970Z,6.60
2018-07-05T00:59:38.640Z,7.37
2018-07-05T01:02:18.781Z,6.37
2018-07-05T01:04:59.238Z,6.80
2018-07-05T01:07:38.977Z,6.57
2018-07-05T01:10:18.790Z,6.17
2018-07-05T01:12:58.592Z,6.47
2018-07-05T01:15:38.177Z,6.07
2018-07-05T01:18:17.944Z,7.10
2018-07-05T01:20:57.867Z,7.33
2018-07-05T01:23:37.759Z,6.77
2018-07-05T01:26:18.962Z,6.83
2018-07-05T01:28:54.283Z,7.13
2018-07-05T01:31:34.847Z,6.77
2018-07-05T01:34:16.156Z,6.80
2018-07-05T01:36:57.234Z,6.30
2018-07-05T01:39:38.497Z,6.20
2018-07-05T01:42:18.353Z,5.93
2018-07-05T01:44:57.936Z,5.87
2018-07-05T01:47:38.597Z,6.03
2018-07-05T01:50:12.177Z,5.70
2018-07-05T01:52:52.772Z,5.57
2018-07-05T01:55:32.570Z,5.83
2018-07-05T01:58:13.799Z,6.27
2018-07-05T02:00:54.201Z,6.10
2018-07-05T02:03:34.446Z,5.93
2018-07-05T02:06:15.694Z,5.60
2018-07-05T02:08:56.194Z,6.03
2018-07-05T02:11:35.929Z,5.70
2018-07-05T02:14:21.629Z,5.83
2018-07-05T02:17:01.421Z,5.57
2018-07-05T02:19:42.022Z,6.17
2018-07-05T02:22:21.972Z,6.33
2018-07-05T02:25:02.327Z,6.67
2018-07-05T02:27:43.578Z,6.07
2018-07-05T02:30:23.500Z,6.30
2018-07-05T02:33:05.367Z,6.43
2018-07-05T02:35:45.475Z,6.97
2018-07-05T02:38:26.394Z,6.80
2018-07-05T02:41:09.203Z,6.77
2018-07-05T02:43:50.375Z,7.03
2018-07-05T02:46:30.640Z,7.10
2018-07-05T02:49:11.006Z,7.43
2018-07-05T02:51:51.839Z,7.20
2018-07-05T02:54:31.966Z,6.97
2018-07-05T02:57:12.998Z,7.37
2018-07-05T02:59:53.098Z,6.93
2018-07-05T03:02:32.770Z,6.80
2018-07-05T03:05:12.363Z,6.77
2018-07-05T03:07:52.277Z,6.23
2018-07-05T03:10:32.714Z,7.07
2018-07-05T03:13:12.635Z,7.40
2018-07-05T03:15:52.786Z,8.30
2018-07-05T03:18:32.574Z,7.90
2018-07-05T03:21:12.329Z,8.10
2018-07-05T03:23:52.570Z,8.00
2018-07-05T03:26:32.409Z,7.07
2018-07-05T03:29:12.369Z,7.83
2018-07-05T03:31:52.526Z,7.57
2018-07-05T03:34:32.323Z,7.67
2018-07-05T03:37:12.109Z,7.50
2018-07-05T03:39:52.772Z,7.90
2018-07-05T03:42:33.104Z,7.50
2018-07-05T03:45:13.107Z,7.10
2018-07-05T03:47:52.918Z,7.40
2018-07-05T03:50:32.784Z,7.10
2018-07-05T03:53:12.595Z,6.90
2018-07-05T03:55:52.253Z,7.13
2018-07-05T03:58:32.082Z,7.07
2018-07-05T04:01:12.071Z,7.13
2018-07-05T04:03:52.454Z,7.50
2018-07-05T04:06:33.448Z,7.50
2018-07-05T04:09:28.076Z,7.10
2018-07-05T04:12:09.794Z,6.90
2018-07-05T04:14:50.106Z,7.63
2018-07-05T04:17:29.892Z,7.40
2018-07-05T04:20:09.454Z,6.80
2018-07-05T04:22:49.145Z,6.93
2018-07-05T04:25:28.963Z,7.00
2018-07-05T04:28:08.694Z,7.23
2018-07-05T04:30:48.496Z,7.07
2018-07-05T04:33:28.298Z,7.23
2018-07-05T04:36:08.091Z,6.90
2018-07-05T04:38:48.286Z,7.97
2018-07-05T04:41:28.803Z,7.27
2018-07-05T04:44:08.989Z,7.37
2018-07-05T04:46:48.829Z,7.70
2018-07-05T04:49:29.263Z,7.77
2018-07-05T04:52:09.035Z,7.40
2018-07-05T04:55:00.866Z,8.47
2018-07-05T04:57:41.983Z,8.57
2018-07-05T05:00:25.939Z,8.73
2018-07-05T05:03:06.129Z,8.57
2018-07-05T05:05:45.810Z,9.23
2018-07-05T05:08:25.462Z,8.33
2018-07-05T05:11:06.172Z,8.03
2018-07-05T05:13:49.355Z,8.30
2018-07-05T05:16:29.649Z,9.87
2018-07-05T05:19:11.378Z,10.73
2018-07-05T05:21:54.418Z,9.00
2018-07-05T05:24:34.464Z,9.90
2018-07-05T05:27:14.260Z,10.57
2018-07-05T05:29:55.783Z,10.03
2018-07-05T05:32:40.232Z,10.50
2018-07-05T05:35:19.877Z,10.70
2018-07-05T05:38:00.364Z,11.77
2018-07-05T05:40:40.159Z,10.07
2018-07-05T05:43:19.782Z,9.93
2018-07-05T05:46:05.190Z,9.70
2018-07-05T05:48:44.978Z,9.47
2018-07-05T05:51:28.211Z,9.33
2018-07-05T05:54:09.572Z,9.50
2018-07-05T05:56:50.136Z,9.27
2018-07-05T05:59:30.790Z,9.43
2018-07-05T06:05:06.375Z,9.23
2018-07-05T06:07:45.990Z,10.00
2018-07-05T06:10:27.650Z,9.93
2018-07-05T06:13:08.961Z,9.60
2018-07-05T06:15:52.362Z,9.90
2018-07-05T06:18:32.089Z,9.83
2018-07-05T06:21:13.354Z,9.90
2018-07-05T06:23:54.724Z,9.40
2018-07-05T06:26:36.420Z,9.73
2018-07-05T06:29:17.599Z,8.70
2018-07-05T06:32:00.152Z,9.70
2018-07-05T06:34:40.217Z,9.50
2018-07-05T06:37:20.378Z,8.13
2018-07-05T06:40:01.220Z,8.90
2018-07-05T06:42:40.893Z,8.13
2018-07-05T06:45:20.661Z,7.77
2018-07-05T06:48:00.466Z,8.37
2018-07-05T06:50:40.127Z,7.80
2018-07-05T06:53:19.988Z,7.57
2018-07-05T06:55:59.978Z,7.37
2018-07-05T06:58:40.482Z,7.57
2018-07-05T07:01:20.654Z,7.90
2018-07-05T07:04:04.009Z,7.10
2018-07-05T07:06:44.989Z,7.57
2018-07-05T07:09:26.115Z,7.60
2018-07-05T07:12:07.179Z,8.60
2018-07-05T07:14:46.959Z,7.37
2018-07-05T07:17:26.838Z,7.00
2018-07-05T07:20:06.669Z,7.00
2018-07-05T07:22:49.655Z,7.37
2018-07-05T07:25:29.606Z,6.90
2018-07-05T07:28:10.456Z,7.40
2018-07-05T07:30:52.812Z,7.00
2018-07-05T07:33:33.082Z,6.70
2018-07-05T07:36:14.589Z,6.30
2018-07-05T07:38:55.394Z,5.33
2018-07-05T07:41:37.829Z,4.50
2018-07-05T07:44:09.406Z,4.67
2018-07-05T07:46:43.605Z,4.93
2018-07-05T07:49:10.914Z,5.23
2018-07-05T07:51:40.564Z,6.10
2018-07-05T07:54:08.080Z,6.00
2018-07-05T07:56:35.834Z,5.87
2018-07-05T07:59:03.067Z,5.90
2018-07-05T08:01:30.292Z,5.50
2018-07-05T08:03:58.182Z,5.80
2018-07-05T08:06:25.610Z,5.50
2018-07-05T08:08:52.851Z,4.93
2018-07-05T08:11:20.081Z,5.50
2018-07-05T08:13:47.346Z,4.40
2018-07-05T08:16:14.650Z,5.90
2018-07-05T08:18:41.966Z,4.80
2018-07-05T08:21:09.351Z,5.07
2018-07-05T08:23:37.128Z,5.17
2018-07-05T08:26:05.829Z,5.13
2018-07-05T08:28:33.341Z,4.80
2018-07-05T08:31:00.936Z,4.10
2018-07-05T08:33:28.705Z,4.00
2018-07-05T08:35:55.930Z,3.77
2018-07-05T08:38:23.189Z,3.98
2018-07-05T08:40:50.409Z,3.90
2018-07-05T08:43:17.936Z,4.00
2018-07-05T08:45:46.494Z,3.53
2018-07-05T08:48:14.090Z,3.77
2018-07-05T08:50:41.464Z,3.80
2018-07-05T08:53:09.095Z,3.73
2018-07-05T08:55:37.129Z,4.07
2018-07-05T08:58:04.770Z,3.47
2018-07-05T09:00:32.279Z,3.87
2018-07-05T09:02:59.609Z,3.50
2018-07-05T09:05:26.838Z,3.60
2018-07-05T09:07:55.028Z,4.03
2018-07-05T09:10:26.857Z,3.58
2018-07-05T09:12:54.875Z,3.87
2018-07-05T09:15:22.873Z,3.20
2018-07-05T09:17:50.277Z,3.20
2018-07-05T09:20:25.081Z,3.62
2018-07-05T09:22:53.593Z,3.80
2018-07-05T09:25:21.584Z,3.80
2018-07-05T09:27:49.338Z,4.10
2018-07-05T09:30:18.101Z,3.80
2018-07-05T09:32:46.094Z,4.12
2018-07-05T09:35:14.108Z,4.00
2018-07-05T09:37:41.676Z,4.05
2018-07-05T09:40:09.462Z,4.25
2018-07-05T09:42:36.849Z,4.00
2018-07-05T09:45:04.511Z,3.92
2018-07-05T09:47:31.738Z,3.98
2018-07-05T09:49:59.209Z,4.40
2018-07-05T09:52:27.272Z,4.37
2018-07-05T09:54:54.798Z,4.40
2018-07-05T09:57:22.039Z,4.20
2018-07-05T09:59:49.279Z,3.83
2018-07-05T10:02:16.744Z,4.12
2018-07-05T10:04:44.280Z,4.20
2018-07-05T10:07:11.831Z,4.43
2018-07-05T10:09:39.302Z,4.53
2018-07-05T10:12:07.457Z,4.40
2018-07-05T10:14:35.517Z,4.03
2018-07-05T10:17:05.605Z,3.87
2018-07-05T10:19:33.173Z,3.77
2018-07-05T10:22:01.321Z,3.80
2018-07-05T10:24:29.169Z,3.77
2018-07-05T10:26:57.354Z,3.70
2018-07-05T10:29:37.491Z,3.72
2018-07-05T10:32:18.873Z,3.60
2018-07-05T10:34:48.523Z,3.60
2018-07-05T10:37:20.912Z,3.47
2018-07-05T10:40:00.639Z,3.43
2018-07-05T10:42:41.384Z,3.40
2018-07-05T10:45:20.963Z,3.30
2018-07-05T10:48:01.241Z,3.53
2018-07-05T10:50:42.706Z,3.53
2018-07-05T10:53:22.504Z,3.30
2018-07-05T10:55:57.939Z,2.97
2018-07-05T10:58:38.799Z,3.40
2018-07-05T11:01:19.808Z,4.10
2018-07-05T11:04:01.449Z,3.27
2018-07-05T11:06:41.101Z,3.40
2018-07-05T11:09:21.269Z,3.37
2018-07-05T11:12:01.094Z,3.50
2018-07-05T11:14:41.304Z,3.70
2018-07-05T11:17:21.229Z,3.60
2018-07-05T11:20:01.300Z,3.47
2018-07-05T11:22:41.401Z,3.40
2018-07-05T11:25:17.009Z,3.47
2018-07-05T11:27:57.247Z,3.60
2018-07-05T11:30:37.193Z,3.80
2018-07-05T11:33:18.284Z,3.63
2018-07-05T11:35:58.430Z,3.17
2018-07-05T11:38:38.202Z,3.30
2018-07-05T11:41:19.241Z,3.10
2018-07-05T11:43:59.174Z,3.67
2018-07-05T11:46:39.400Z,3.60
2018-07-05T11:49:20.699Z,3.60
2018-07-05T11:52:01.534Z,4.10
2018-07-05T11:54:41.216Z,4.20
2018-07-05T11:57:24.047Z,4.17
2018-07-05T12:00:03.713Z,3.43
2018-07-05T12:02:44.601Z,3.90
2018-07-05T12:05:25.828Z,3.87
2018-07-05T12:08:06.825Z,4.20
2018-07-05T12:10:46.833Z,4.37
2018-07-05T12:13:27.051Z,4.00
2018-07-05T12:16:08.443Z,3.40
2018-07-05T12:18:48.877Z,3.33
2018-07-05T12:21:28.454Z,2.87
2018-07-05T12:24:08.867Z,2.50
2018-07-05T12:26:48.970Z,2.67
2018-07-05T12:29:29.062Z,3.20
2018-07-05T12:32:08.820Z,2.90
2018-07-05T12:34:48.856Z,2.30
2018-07-05T12:37:29.233Z,2.30
2018-07-05T12:40:09.204Z,2.60
2018-07-05T12:42:49.582Z,2.60
2018-07-05T12:45:23.480Z,2.57
2018-07-05T12:48:03.267Z,2.67
2018-07-05T12:50:43.582Z,2.47
2018-07-05T12:53:23.429Z,2.70
2018-07-05T12:56:03.681Z,2.90
2018-07-05T12:58:43.414Z,2.70
2018-07-05T13:01:28.727Z,2.67
2018-07-05T13:04:08.638Z,2.90
2018-07-05T13:06:49.094Z,3.10
2018-07-05T13:09:28.977Z,3.43
2018-07-05T13:12:09.775Z,3.40
2018-07-05T13:14:49.724Z,3.57
2018-07-05T13:17:30.052Z,3.33
2018-07-05T13:20:10.225Z,3.33
2018-07-05T13:22:46.043Z,2.80
2018-07-05T13:25:25.633Z,2.90
2018-07-05T13:28:07.154Z,2.93
2018-07-05T13:30:42.319Z,3.13
2018-07-05T13:33:22.454Z,2.87
2018-07-05T13:36:02.127Z,3.17
2018-07-05T13:38:42.448Z,2.97
2018-07-05T13:41:22.606Z,3.10
2018-07-05T13:44:02.700Z,3.00
2018-07-05T13:46:42.947Z,3.37
2018-07-05T13:49:23.005Z,3.10
2018-07-05T13:52:03.187Z,2.90
2018-07-05T13:54:43.594Z,3.07
2018-07-05T13:57:23.872Z,3.00
2018-07-05T14:00:03.696Z,2.70
2018-07-05T14:02:43.607Z,2.53
2018-07-05T14:05:23.432Z,2.40
2018-07-05T14:08:03.467Z,2.50
2018-07-05T14:10:43.461Z,2.60
2018-07-05T14:13:23.436Z,2.73
2018-07-05T14:16:03.399Z,2.80
2018-07-05T14:18:42.990Z,2.50
2018-07-05T14:21:22.514Z,3.10
2018-07-05T14:24:02.583Z,3.00
2018-07-05T14:26:36.438Z,3.00
2018-07-05T14:29:16.443Z,2.80
2018-07-05T14:31:56.140Z,2.90
2018-07-05T14:34:36.031Z,3.10
2018-07-05T14:37:15.631Z,3.10
2018-07-05T14:39:55.547Z,3.20
2018-07-05T14:42:35.350Z,3.33
2018-07-05T14:45:15.103Z,2.97
2018-07-05T14:47:54.832Z,2.97
2018-07-05T14:50:34.891Z,2.80
2018-07-05T14:53:14.463Z,2.73
2018-07-05T14:55:54.185Z,2.40
2018-07-05T14:58:34.047Z,2.47
2018-07-05T15:01:14.173Z,2.40
2018-07-05T15:03:53.771Z,2.60
2018-07-05T15:06:33.604Z,2.20
2018-07-05T15:09:13.964Z,2.33
2018-07-05T15:11:54.461Z,2.43
2018-07-05T15:14:34.593Z,2.47
2018-07-05T15:17:16.714Z,2.30
2018-07-05T15:19:57.813Z,2.63
2018-07-05T15:22:42.883Z,2.60
2018-07-05T15:25:23.265Z,2.90
2018-07-05T15:28:03.021Z,3.20
2018-07-05T15:30:42.962Z,2.60
2018-07-05T15:33:23.230Z,3.07
2018-07-05T15:35:58.623Z,2.90
2018-07-05T15:38:44.378Z,2.83
2018-07-05T15:41:24.341Z,2.77
2018-07-05T15:44:04.791Z,2.77
2018-07-05T15:46:48.510Z,2.67
2018-07-05T15:49:31.373Z,2.87
2018-07-05T15:52:12.841Z,3.23
2018-07-05T15:54:58.396Z,3.40
2018-07-05T15:57:38.577Z,3.83
2018-07-05T16:00:12.185Z,3.70
2018-07-05T16:02:52.066Z,3.70
2018-07-05T16:05:31.747Z,3.70
2018-07-05T16:08:11.770Z,3.57
2018-07-05T16:10:51.915Z,3.33
2018-07-05T16:13:31.829Z,3.70
2018-07-05T16:16:11.630Z,3.50
2018-07-05T16:18:52.901Z,3.43
2018-07-05T16:21:33.326Z,3.90
2018-07-05T16:24:14.633Z,4.10
2018-07-05T16:26:54.539Z,4.70
2018-07-05T16:29:34.300Z,5.47
2018-07-05T16:32:14.160Z,5.03
2018-07-05T16:34:53.989Z,4.73
2018-07-05T16:37:33.827Z,4.60
2018-07-05T16:40:14.079Z,4.23
2018-07-05T16:42:54.405Z,4.40
2018-07-05T16:45:35.527Z,4.47
2018-07-05T16:48:16.733Z,4.20
2018-07-05T16:50:56.462Z,4.80
2018-07-05T16:53:36.593Z,5.10
2018-07-05T16:56:17.180Z,7.50
2018-07-05T16:58:56.955Z,6.67
2018-07-05T17:01:36.707Z,7.40
2018-07-05T17:04:16.938Z,7.70
2018-07-05T17:06:56.758Z,8.63
2018-07-05T17:09:36.563Z,8.63
2018-07-05T17:12:16.249Z,7.93
2018-07-05T17:14:56.328Z,7.87
2018-07-05T17:17:36.178Z,7.43
2018-07-05T17:20:15.906Z,7.40
2018-07-05T17:22:56.591Z,7.23
2018-07-05T17:25:38.483Z,7.10
2018-07-05T17:28:18.657Z,6.60
2018-07-05T17:30:59.524Z,6.57
2018-07-05T17:33:40.077Z,5.37
2018-07-05T17:36:21.158Z,5.60
2018-07-05T17:39:02.133Z,5.60
2018-07-05T17:41:42.392Z,5.70
2018-07-05T17:44:22.853Z,6.00
2018-07-05T17:47:05.120Z,5.77
2018-07-05T17:49:45.555Z,5.70
2018-07-05T17:52:25.627Z,5.53
2018-07-05T17:55:05.762Z,5.80
2018-07-05T17:57:46.023Z,6.77
2018-07-05T18:00:29.138Z,6.83
2018-07-05T18:03:11.227Z,7.03
2018-07-05T18:05:50.962Z,6.27
2018-07-05T18:08:30.873Z,5.50
2018-07-05T18:11:11.978Z,5.80
2018-07-05T18:13:52.226Z,5.80
2018-07-05T18:16:32.020Z,5.50
2018-07-05T18:19:12.381Z,5.63
2018-07-05T18:21:52.191Z,5.70
2018-07-05T18:24:32.107Z,5.97
2018-07-05T18:27:12.062Z,5.30
2018-07-05T18:29:51.855Z,6.03
2018-07-05T18:32:31.602Z,5.90
2018-07-05T18:35:11.420Z,5.40
2018-07-05T18:37:52.090Z,5.23
2018-07-05T18:40:32.236Z,5.30
2018-07-05T18:43:12.407Z,5.10
2018-07-05T18:45:52.386Z,5.23
2018-07-05T18:48:32.172Z,5.47
2018-07-05T18:51:12.052Z,4.83
2018-07-05T18:53:52.245Z,4.40
2018-07-05T18:56:32.701Z,4.57
2018-07-05T18:59:12.831Z,4.73
2018-07-05T19:01:52.475Z,4.67
2018-07-05T19:04:32.367Z,4.70
2018-07-05T19:07:12.293Z,4.13
2018-07-05T19:09:54.597Z,4.57
2018-07-05T19:12:34.575Z,4.77
2018-07-05T19:15:14.584Z,4.77
2018-07-05T19:17:55.198Z,4.47
2018-07-05T19:20:35.837Z,4.53
2018-07-05T19:23:17.749Z,4.60
2018-07-05T19:25:57.676Z,4.60
2018-07-05T19:28:38.681Z,4.40
2018-07-05T19:31:19.050Z,4.37
2018-07-05T19:33:59.171Z,4.40
2018-07-05T19:36:38.946Z,4.40
2018-07-05T19:39:18.567Z,4.97
2018-07-05T19:41:58.548Z,5.30
2018-07-05T19:44:38.412Z,5.00
2018-07-05T19:47:19.038Z,5.20
2018-07-05T19:49:58.569Z,5.60
2018-07-05T19:52:39.589Z,5.93
2018-07-05T19:55:19.368Z,6.20
2018-07-05T19:57:59.190Z,6.00
2018-07-05T20:00:39.012Z,6.20
2018-07-05T20:03:19.718Z,7.23
2018-07-05T20:05:59.694Z,6.40
2018-07-05T20:08:39.938Z,6.00
2018-07-05T20:11:20.147Z,6.13
2018-07-05T20:14:00.574Z,6.23
2018-07-05T20:16:40.693Z,6.00
2018-07-05T20:19:20.809Z,6.03
2018-07-05T20:22:00.841Z,6.13
2018-07-05T20:24:40.727Z,5.80
2018-07-05T20:27:20.554Z,5.83
2018-07-05T20:30:00.234Z,6.40
2018-07-05T20:32:40.396Z,6.23
2018-07-05T20:35:20.102Z,6.03
2018-07-05T20:38:00.018Z,6.30
2018-07-05T20:40:39.809Z,7.00
2018-07-05T20:43:19.443Z,6.30
2018-07-05T20:45:59.159Z,6.37
2018-07-05T20:48:39.185Z,6.73
2018-07-05T20:51:19.113Z,6.83
2018-07-05T20:53:58.972Z,6.53
2018-07-05T20:56:38.738Z,6.50
2018-07-05T20:59:18.458Z,5.87
2018-07-05T21:01:58.517Z,6.33
2018-07-05T21:04:38.686Z,6.23
2018-07-05T21:07:18.278Z,6.73
2018-07-05T21:09:57.946Z,6.83
2018-07-05T21:12:37.613Z,7.83
2018-07-05T21:15:17.483Z,7.20
2018-07-05T21:17:57.392Z,8.17
2018-07-05T21:20:37.281Z,8.33
2018-07-05T21:23:17.201Z,8.00
2018-07-05T21:25:57.938Z,8.73
2018-07-05T21:28:38.137Z,8.90
2018-07-05T21:31:18.094Z,8.43
2018-07-05T21:33:58.686Z,8.90
2018-07-05T21:36:38.691Z,8.47
2018-07-05T21:39:18.519Z,8.67
2018-07-05T21:41:58.394Z,7.77
2018-07-05T21:44:38.314Z,7.97
2018-07-05T21:47:18.550Z,7.83
2018-07-05T21:49:58.347Z,8.20
2018-07-05T21:52:38.194Z,8.03
2018-07-05T21:55:17.993Z,8.17
2018-07-05T21:57:59.793Z,8.87
2018-07-05T22:00:39.468Z,7.97
2018-07-05T22:03:19.110Z,8.57
2018-07-05T22:05:58.626Z,8.10
2018-07-05T22:08:38.386Z,8.00
2018-07-05T22:11:13.246Z,8.23
2018-07-05T22:13:55.565Z,8.17
2018-07-05T22:16:39.889Z,9.87
2018-07-05T22:19:28.461Z,9.10
2018-07-05T22:22:13.842Z,8.70
2018-07-05T22:24:59.780Z,8.60
2018-07-05T22:27:45.324Z,8.90
2018-07-05T22:30:30.958Z,8.53
2018-07-05T22:33:10.754Z,8.17
2018-07-05T22:35:51.583Z,8.50
2018-07-05T22:38:32.832Z,8.60
2018-07-05T22:41:12.693Z,8.07
2018-07-05T22:43:52.920Z,7.70
2018-07-05T22:46:32.673Z,8.10
2018-07-05T22:49:13.093Z,7.83
2018-07-05T22:51:53.114Z,7.53
2018-07-05T22:54:32.714Z,7.67
2018-07-05T22:57:12.762Z,7.77
2018-07-05T22:59:52.638Z,7.50
2018-07-05T23:02:32.223Z,8.23
2018-07-05T23:05:11.898Z,7.87
2018-07-05T23:07:52.098Z,8.47
2018-07-05T23:10:32.746Z,8.33
2018-07-05T23:13:12.610Z,9.03
2018-07-05T23:15:53.151Z,8.93
2018-07-05T23:18:32.870Z,9.20
2018-07-05T23:21:12.586Z,8.50
2018-07-05T23:23:52.348Z,9.67
2018-07-05T23:26:32.238Z,9.77
2018-07-05T23:29:12.828Z,9.13
2018-07-05T23:31:50.005Z,10.07
2018-07-05T23:34:30.589Z,10.30
2018-07-05T23:37:10.258Z,10.10
2018-07-05T23:39:50.130Z,10.33
2018-07-05T23:42:30.646Z,9.43
2018-07-05T23:45:10.401Z,10.23
2018-07-05T23:47:51.172Z,9.90
2018-07-05T23:50:32.285Z,9.70
2018-07-05T23:53:12.769Z,9.97
2018-07-05T23:55:52.663Z,11.60
2018-07-05T23:58:32.668Z,9.87
